Time;durP1;ratioP1;P1;durP2;ratioP2;P2;SDS_P1;SDS_P2;PMS_P1;PMS_P2;Temp;Humidity;BMP_temperature;BMP_pressure;BME280_temperature;BME280_humidity;BME280_pressure;Samples;Min_cycle;Max_cycle;Signal;HPM_P1;HPM_P2
2023/05/09 00:02:00;;;;;;;;;;;;;;;7.49;65.59;100022.38;4196895;34;32594;-96
2023/05/09 00:04:31;;;;;;;;;;;;;;;7.26;67.74;100025.53;4179668;34;34808;-96
2023/05/09 00:07:00;;;;;;;;;;;;;;;6.76;69.59;100016.19;4193702;34;35553;-88
2023/05/09 00:09:27;;;;;;;;;;;;;;;6.97;69.05;100019.91;4177665;34;33325;-89
2023/05/09 00:11:56;;;;;;;;;;;;;;;6.76;68.92;100020.47;4178045;34;34156;-95
2023/05/09 00:14:24;;;;;;;;;;;;;;;6.91;67.28;100018.12;4178334;34;36281;-88
2023/05/09 00:16:52;;;;;;;;;;;;;;;6.98;66.02;100019.94;4189178;34;34453;-90
2023/05/09 00:19:20;;;;;;;;;;;;;;;6.89;67.35;100009.47;4179316;34;34253;-93
2023/05/09 00:21:48;;;;;;;;;;;;;;;6.43;70.05;100009.59;4179305;34;34600;-92
2023/05/09 00:24:16;;;;;;;;;;;;;;;6.33;71.44;100012.00;4179383;34;35234;-91
2023/05/09 00:26:44;;;;;;;;;;;;;;;6.86;68.48;100011.13;4189195;34;35124;-88
2023/05/09 00:29:12;;;;;;;;;;;;;;;6.44;71.56;100007.88;4188736;34;34004;-89
2023/05/09 00:31:39;;;;;;;;;;;;;;;6.21;72.58;100008.38;4179317;34;34238;-89
2023/05/09 00:34:08;;;;;;;;;;;;;;;5.87;74.47;100018.03;4184194;34;35337;-96
2023/05/09 00:36:36;;;;;;;;;;;;;;;5.81;74.99;100007.59;4195277;34;35476;-96
2023/05/09 00:39:04;;;;;;;;;;;;;;;5.97;75.49;100007.94;4185159;34;33642;-96
2023/05/09 00:41:39;;;;;;;;;;;;;;;6.18;74.08;100010.91;4184406;34;33965;-96
2023/05/09 00:44:07;;;;;;;;;;;;;;;6.01;75.02;100004.56;4172174;34;34657;-89
2023/05/09 00:46:35;;;;;;;;;;;;;;;5.89;75.33;100000.88;4184505;34;35506;-88
2023/05/09 00:49:03;;;;;;;;;;;;;;;5.89;75.05;100000.88;4184100;34;33220;-90
2023/05/09 00:51:31;;;;;;;;;;;;;;;5.96;74.51;100006.19;4194256;34;34997;-90
2023/05/09 00:53:59;;;;;;;;;;;;;;;6.07;74.51;99999.47;4194451;34;35322;-93
2023/05/09 00:56:27;;;;;;;;;;;;;;;6.07;73.32;100005.53;4183607;34;34365;-96
2023/05/09 00:58:56;;;;;;;;;;;;;;;5.70;74.87;100001.38;4193651;34;33491;-96
2023/05/09 01:01:23;;;;;;;;;;;;;;;6.12;73.37;100000.44;4193549;34;34069;-89
2023/05/09 01:03:52;;;;;;;;;;;;;;;6.66;70.23;99987.56;4193705;34;35032;-90
2023/05/09 01:06:40;;;;;;;;;;;;;;;5.61;74.34;99998.59;4192493;34;35402;-91
2023/05/09 01:09:08;;;;;;;;;;;;;;;5.95;73.40;99997.53;4194251;34;33277;-94
2023/05/09 01:11:51;;;;;;;;;;;;;;;5.98;73.29;99995.03;4183943;34;33870;-95
2023/05/09 01:14:31;;;;;;;;;;;;;;;5.77;74.48;100002.34;4193496;34;35186;-96
2023/05/09 01:17:00;;;;;;;;;;;;;;;6.01;73.69;100000.25;4193714;34;34350;-93
2023/05/09 01:19:49;;;;;;;;;;;;;;;5.09;76.66;99996.66;4194087;34;33435;-96
2023/05/09 01:22:17;;;;;;;;;;;;;;;5.07;78.41;100000.06;4184327;34;34225;-96
2023/05/09 01:25:12;;;;;;;;;;;;;;;4.72;80.08;100003.56;4182801;34;34194;-89
2023/05/09 01:27:58;;;;;;;;;;;;;;;5.13;79.75;99998.50;4183076;34;35010;-96
2023/05/09 01:30:26;;;;;;;;;;;;;;;4.52;81.27;99999.66;4183259;34;33556;-90
2023/05/09 01:32:56;;;;;;;;;;;;;;;4.86;80.17;99995.28;4182105;34;34800;-96
2023/05/09 01:35:29;;;;;;;;;;;;;;;4.69;79.97;99993.16;4182420;34;34976;-96
2023/05/09 01:37:57;;;;;;;;;;;;;;;5.31;77.43;99998.00;4182368;34;34433;-96
2023/05/09 01:40:25;;;;;;;;;;;;;;;5.32;75.53;99991.13;4181986;34;33481;-92
2023/05/09 01:42:57;;;;;;;;;;;;;;;4.43;81.00;100000.28;4182110;34;34094;-96
2023/05/09 01:45:25;;;;;;;;;;;;;;;4.48;81.39;99997.81;4170419;34;35439;-96
2023/05/09 01:47:53;;;;;;;;;;;;;;;4.94;78.79;99989.47;4181491;34;34636;-91
2023/05/09 01:50:21;;;;;;;;;;;;;;;5.21;76.56;99979.69;4182328;34;33611;-90
2023/05/09 01:52:49;;;;;;;;;;;;;;;5.06;78.15;99983.66;4194415;34;34292;-95
2023/05/09 01:55:18;;;;;;;;;;;;;;;5.61;74.92;99983.06;4193719;34;34698;-94
2023/05/09 01:57:46;;;;;;;;;;;;;;;5.39;74.93;99979.22;4183866;34;34793;-96
2023/05/09 02:00:17;;;;;;;;;;;;;;;4.36;80.85;99988.94;4192134;34;33505;-96
2023/05/09 02:02:45;;;;;;;;;;;;;;;4.45;82.47;99982.28;4181739;34;34633;-96
2023/05/09 02:05:13;;;;;;;;;;;;;;;4.25;82.20;99982.62;4192961;34;34785;-95
2023/05/09 02:07:41;;;;;;;;;;;;;;;4.03;84.46;99982.94;4194177;34;34710;-96
2023/05/09 02:10:10;;;;;;;;;;;;;;;4.36;83.80;99981.22;4192677;34;33379;-96
2023/05/09 02:12:38;;;;;;;;;;;;;;;4.42;82.58;99977.06;4192458;34;34986;-90
2023/05/09 02:15:07;;;;;;;;;;;;;;;4.53;81.85;99970.44;4186194;34;35425;-96
2023/05/09 02:17:59;;;;;;;;;;;;;;;4.33;83.71;99973.41;4185216;34;34663;-94
2023/05/09 02:20:27;;;;;;;;;;;;;;;4.28;82.50;99979.28;4185004;34;33241;-91
2023/05/09 02:22:55;;;;;;;;;;;;;;;4.81;79.91;99971.09;4184080;34;33851;-96
2023/05/09 02:25:23;;;;;;;;;;;;;;;4.40;82.49;99971.00;4184288;34;34870;-96
2023/05/09 02:27:51;;;;;;;;;;;;;;;4.86;80.83;99970.34;4184205;34;35187;-96
2023/05/09 02:30:23;;;;;;;;;;;;;;;4.18;82.78;99975.59;4183942;34;33595;-89
2023/05/09 02:33:10;;;;;;;;;;;;;;;4.85;80.97;99965.13;4173851;34;34194;-94
2023/05/09 02:36:00;;;;;;;;;;;;;;;5.19;78.12;99963.28;4186808;34;35097;-96
2023/05/09 02:38:28;;;;;;;;;;;;;;;4.87;78.94;99966.03;4184129;34;34613;-95
2023/05/09 02:40:56;;;;;;;;;;;;;;;4.67;81.12;99963.87;4183754;34;33212;-91
2023/05/09 02:43:27;;;;;;;;;;;;;;;4.42;81.43;99966.72;4172714;34;35072;-94
2023/05/09 02:45:55;;;;;;;;;;;;;;;4.37;81.78;99964.91;4196247;34;35210;-94
2023/05/09 02:48:24;;;;;;;;;;;;;;;5.31;77.38;99960.97;4184227;34;34396;-92
2023/05/09 02:50:51;;;;;;;;;;;;;;;4.47;82.15;99960.84;4185055;34;33309;-91
2023/05/09 02:53:19;;;;;;;;;;;;;;;4.67;80.04;99957.88;4177492;34;33878;-91
2023/05/09 02:55:48;;;;;;;;;;;;;;;4.21;84.16;99961.91;4178119;34;35170;-93
2023/05/09 02:58:21;;;;;;;;;;;;;;;4.40;81.82;99958.97;4188798;34;34665;-91
2023/05/09 03:00:49;;;;;;;;;;;;;;;4.55;80.80;99959.34;4188588;34;34415;-96
2023/05/09 03:03:20;;;;;;;;;;;;;;;4.25;81.84;99968.88;4189391;34;32978;-90
2023/05/09 03:05:50;;;;;;;;;;;;;;;4.77;80.16;99964.13;4177974;34;35131;-91
2023/05/09 03:08:18;;;;;;;;;;;;;;;4.27;82.44;99952.63;4188816;34;34538;-96
2023/05/09 03:10:46;;;;;;;;;;;;;;;4.41;82.00;99950.38;4201208;34;33768;-94
2023/05/09 03:13:16;;;;;;;;;;;;;;;4.28;82.43;99944.06;4202383;34;34091;-96
2023/05/09 03:15:44;;;;;;;;;;;;;;;4.01;83.35;99949.41;4190204;34;35187;-93
2023/05/09 03:18:12;;;;;;;;;;;;;;;4.64;80.98;99943.19;4188755;34;34759;-96
2023/05/09 03:20:40;;;;;;;;;;;;;;;4.18;83.05;99952.38;4178359;34;32948;-96
2023/05/09 03:23:17;;;;;;;;;;;;;;;4.73;79.67;99958.88;4200991;34;33743;-90
2023/05/09 03:25:45;;;;;;;;;;;;;;;4.39;80.72;99951.19;4189307;34;35774;-96
2023/05/09 03:28:16;;;;;;;;;;;;;;;4.51;81.95;99954.06;4190635;34;34781;-96
2023/05/09 03:30:44;;;;;;;;;;;;;;;4.25;81.88;99962.03;4189447;34;34013;-90
2023/05/09 03:33:12;;;;;;;;;;;;;;;3.86;85.25;99955.03;4189674;34;34814;-94
2023/05/09 03:35:40;;;;;;;;;;;;;;;4.53;82.56;99954.94;4191028;34;35236;-96
2023/05/09 03:38:27;;;;;;;;;;;;;;;4.07;84.10;99959.00;4202653;34;34776;-96
2023/05/09 03:40:55;;;;;;;;;;;;;;;4.94;79.73;99955.91;4204070;34;33634;-93
2023/05/09 03:43:26;;;;;;;;;;;;;;;4.57;80.07;99967.09;4192382;34;34658;-96
2023/05/09 03:45:54;;;;;;;;;;;;;;;4.49;82.99;99964.31;4204321;34;35142;-92
2023/05/09 03:48:44;;;;;;;;;;;;;;;4.56;82.05;99962.78;4203201;34;34746;-93
2023/05/09 03:51:35;;;;;;;;;;;;;;;4.79;81.37;99963.31;4191510;34;33692;-96
2023/05/09 03:54:07;;;;;;;;;;;;;;;5.13;80.41;99964.94;4190085;34;34931;-93
2023/05/09 03:56:36;;;;;;;;;;;;;;;4.85;81.67;99967.72;4201910;34;35155;-92
2023/05/09 03:59:04;;;;;;;;;;;;;;;5.02;84.22;99966.38;4189623;34;34884;-95
2023/05/09 04:01:33;;;;;;;;;;;;;;;5.07;81.90;99967.34;4188637;34;33496;-90
2023/05/09 04:04:02;;;;;;;;;;;;;;;5.05;82.71;99965.59;4185683;34;34184;-95
2023/05/09 04:06:34;;;;;;;;;;;;;;;5.85;79.67;99968.03;4185252;34;35238;-93
2023/05/09 04:09:03;;;;;;;;;;;;;;;5.78;80.44;99966.19;4173745;34;34706;-96
2023/05/09 04:11:31;;;;;;;;;;;;;;;6.38;79.07;99962.09;4184702;34;33458;-92
2023/05/09 04:14:14;;;;;;;;;;;;;;;6.70;77.24;99966.91;4182783;34;33086;-92
2023/05/09 04:16:42;;;;;;;;;;;;;;;7.18;76.62;99973.62;4182382;34;35359;-90
2023/05/09 04:19:10;;;;;;;;;;;;;;;7.75;73.03;99966.53;4182111;34;34899;-96
2023/05/09 04:21:38;;;;;;;;;;;;;;;8.19;71.54;99978.22;4171428;34;33482;-90
2023/05/09 04:24:15;;;;;;;;;;;;;;;8.54;70.44;99973.34;4184083;34;34336;-93
2023/05/09 04:26:45;;;;;;;;;;;;;;;9.05;63.93;99973.69;4182324;34;34899;-91
2023/05/09 04:29:12;;;;;;;;;;;;;;;9.43;62.52;99972.13;4181458;34;35056;-96
2023/05/09 04:31:40;;;;;;;;;;;;;;;9.99;60.84;99971.44;4186394;34;33762;-90
2023/05/09 04:34:10;;;;;;;;;;;;;;;10.42;59.38;99970.63;4181657;34;34937;-95
2023/05/09 04:36:38;;;;;;;;;;;;;;;10.48;58.34;99968.00;4182806;34;36081;-95
2023/05/09 04:39:07;;;;;;;;;;;;;;;10.77;57.67;99974.94;4181611;34;35063;-96
2023/05/09 04:41:36;;;;;;;;;;;;;;;11.23;54.63;99980.06;4182536;34;33635;-91
2023/05/09 04:44:04;;;;;;;;;;;;;;;11.53;53.84;99979.06;4185355;34;34639;-95
2023/05/09 04:46:32;;;;;;;;;;;;;;;11.88;52.78;99975.41;4172180;34;35472;-96
2023/05/09 04:49:00;;;;;;;;;;;;;;;11.41;55.14;99973.03;4183715;34;34140;-90
2023/05/09 04:51:28;;;;;;;;;;;;;;;11.71;52.58;99974.62;4182898;34;33533;-94
2023/05/09 04:54:06;;;;;;;;;;;;;;;12.35;51.02;99970.75;4185302;34;34014;-96
2023/05/09 04:56:35;;;;;;;;;;;;;;;12.36;51.52;99974.25;4170442;34;34841;-90
2023/05/09 04:59:03;;;;;;;;;;;;;;;12.44;50.95;99977.66;4181997;34;34877;-91
2023/05/09 05:01:40;;;;;;;;;;;;;;;12.99;47.86;99968.44;4181338;34;34145;-92
2023/05/09 05:04:08;;;;;;;;;;;;;;;12.81;48.23;99974.72;4180529;34;34202;-93
2023/05/09 05:06:37;;;;;;;;;;;;;;;12.82;48.67;99973.84;4181944;34;35247;-91
2023/05/09 05:09:05;;;;;;;;;;;;;;;12.81;49.50;99979.94;4180857;34;35263;-91
2023/05/09 05:11:34;;;;;;;;;;;;;;;12.70;49.16;99978.28;4181230;34;33548;-90
2023/05/09 05:14:03;;;;;;;;;;;;;;;11.83;49.97;99979.78;4194310;34;33158;-93
2023/05/09 05:16:33;;;;;;;;;;;;;;;12.37;48.67;99982.09;4195626;34;35561;-91
2023/05/09 05:19:02;;;;;;;;;;;;;;;12.12;49.69;99986.59;4184100;34;33662;-90
2023/05/09 05:21:31;;;;;;;;;;;;;;;11.99;50.00;99992.78;4195998;34;33719;-92
2023/05/09 05:23:59;;;;;;;;;;;;;;;12.58;48.22;99986.25;4183134;34;33978;-91
2023/05/09 05:26:30;;;;;;;;;;;;;;;12.79;47.48;99986.94;4195679;34;35160;-95
2023/05/09 05:28:58;;;;;;;;;;;;;;;12.46;50.46;99986.37;4196629;34;35427;-92
2023/05/09 05:31:27;;;;;;;;;;;;;;;12.97;49.98;99980.66;4195010;34;33587;-89
2023/05/09 05:33:58;;;;;;;;;;;;;;;13.04;48.89;99978.00;4197995;34;34576;-92
2023/05/09 05:36:28;;;;;;;;;;;;;;;13.57;46.50;99982.62;4198501;34;35493;-90
2023/05/09 05:38:57;;;;;;;;;;;;;;;13.78;44.72;99979.75;4203330;28;34589;-92
2023/05/09 05:41:25;;;;;;;;;;;;;;;14.19;45.66;99980.91;4189534;34;32990;-89
2023/05/09 05:43:54;;;;;;;;;;;;;;;15.12;42.87;99980.22;4200238;34;34472;-89
2023/05/09 05:46:30;;;;;;;;;;;;;;;14.86;43.64;99979.81;4196739;34;35432;-91
2023/05/09 05:48:58;;;;;;;;;;;;;;;14.96;42.34;99974.41;4203551;28;34146;-89
2023/05/09 05:51:27;;;;;;;;;;;;;;;15.10;42.12;99975.88;4173916;34;32122;-92
2023/05/09 05:53:55;;;;;;;;;;;;;;;14.95;41.98;99979.66;4187636;34;34169;-89
2023/05/09 05:56:28;;;;;;;;;;;;;;;14.44;42.83;99977.87;4176928;34;35133;-90
2023/05/09 05:59:15;;;;;;;;;;;;;;;15.56;42.81;99985.44;4203025;28;35064;-96
2023/05/09 06:01:42;;;;;;;;;;;;;;;15.78;40.89;99991.16;4187197;34;33463;-96
2023/05/09 06:04:15;;;;;;;;;;;;;;;15.46;40.75;99981.28;4200507;34;34108;-89
2023/05/09 06:06:54;;;;;;;;;;;;;;;15.76;41.21;99986.81;4178800;34;35676;-89
2023/05/09 06:09:22;;;;;;;;;;;;;;;15.68;40.62;99987.81;4199127;34;34890;-90
2023/05/09 06:11:50;;;;;;;;;;;;;;;15.58;40.66;99986.28;4200850;34;34373;-90
2023/05/09 06:14:20;;;;;;;;;;;;;;;15.95;40.25;99982.91;4209491;28;34792;-94
2023/05/09 06:16:49;;;;;;;;;;;;;;;16.35;40.60;99983.75;4181147;34;35418;-90
2023/05/09 06:19:20;;;;;;;;;;;;;;;15.53;39.54;99983.78;4196642;28;34477;-89
2023/05/09 06:21:48;;;;;;;;;;;;;;;16.26;40.16;99984.81;4199013;28;33443;-91
2023/05/09 06:24:16;;;;;;;;;;;;;;;15.93;40.90;99971.56;4172523;34;34291;-89
2023/05/09 06:27:01;;;;;;;;;;;;;;;16.26;40.06;99985.69;4170634;34;34134;-89
2023/05/09 06:29:29;;;;;;;;;;;;;;;16.83;40.03;99978.16;4197708;28;34289;-90
2023/05/09 06:31:57;;;;;;;;;;;;;;;16.50;39.26;99983.38;4180230;34;33538;-93
2023/05/09 06:34:27;;;;;;;;;;;;;;;16.65;38.80;99982.97;4179761;34;33777;-90
2023/05/09 06:36:55;;;;;;;;;;;;;;;16.94;38.64;99972.63;4180243;34;35255;-96
2023/05/09 06:39:23;;;;;;;;;;;;;;;16.49;40.40;99963.25;4180328;34;34789;-94
2023/05/09 06:41:51;;;;;;;;;;;;;;;16.11;40.87;99971.16;4179421;34;33628;-96
2023/05/09 06:44:20;;;;;;;;;;;;;;;16.63;39.61;99986.56;4177955;34;34710;-93
2023/05/09 06:46:47;;;;;;;;;;;;;;;17.27;38.36;99970.00;4179692;34;35323;-94
2023/05/09 06:49:15;;;;;;;;;;;;;;;17.20;38.22;99980.66;4179452;34;34782;-93
2023/05/09 06:51:44;;;;;;;;;;;;;;;17.63;37.88;99978.59;4179638;34;33667;-92
2023/05/09 06:54:12;;;;;;;;;;;;;;;17.56;36.80;99977.03;4180618;34;34688;-96
2023/05/09 06:56:40;;;;;;;;;;;;;;;16.72;40.51;99972.31;4181031;34;35284;-93
2023/05/09 06:59:15;;;;;;;;;;;;;;;17.39;38.60;99974.91;4178501;34;35179;-96
2023/05/09 07:01:43;;;;;;;;;;;;;;;16.96;38.20;99961.19;4178440;34;33142;-94
2023/05/09 07:04:11;;;;;;;;;;;;;;;17.71;40.01;99962.56;4181417;34;34283;-94
2023/05/09 07:06:39;;;;;;;;;;;;;;;18.67;36.38;99963.91;4179144;34;35331;-93
2023/05/09 07:09:07;;;;;;;;;;;;;;;17.76;38.01;99964.16;4178061;34;35479;-96
2023/05/09 07:11:35;;;;;;;;;;;;;;;18.02;37.30;99961.63;4179395;34;33287;-96
2023/05/09 07:14:03;;;;;;;;;;;;;;;17.43;38.89;99951.06;4179494;34;34241;-90
2023/05/09 07:16:31;;;;;;;;;;;;;;;17.39;38.18;99953.84;4177856;34;35242;-91
2023/05/09 07:19:03;;;;;;;;;;;;;;;17.90;37.15;99947.94;4177898;34;34465;-92
2023/05/09 07:21:33;;;;;;;;;;;;;;;18.87;36.18;99949.22;4178048;34;33998;-91
2023/05/09 07:24:01;;;;;;;;;;;;;;;18.95;36.06;99947.13;4178211;34;34052;-91
2023/05/09 07:26:29;;;;;;;;;;;;;;;18.52;35.83;99933.63;4178416;34;36069;-96
2023/05/09 07:28:57;;;;;;;;;;;;;;;19.41;34.33;99940.19;4180749;34;34773;-92
2023/05/09 07:31:25;;;;;;;;;;;;;;;19.12;36.49;99934.19;4180747;34;33623;-96
2023/05/09 07:33:53;;;;;;;;;;;;;;;18.79;35.57;99948.56;4181536;34;33899;-93
2023/05/09 07:36:21;;;;;;;;;;;;;;;19.72;33.86;99938.16;4180924;34;34422;-93
2023/05/09 07:38:51;;;;;;;;;;;;;;;19.79;33.28;99939.69;4180704;34;35468;-96
2023/05/09 07:41:19;;;;;;;;;;;;;;;19.89;34.42;99930.47;4171305;34;33433;-94
2023/05/09 07:43:47;;;;;;;;;;;;;;;20.32;34.76;99935.78;4171956;34;32898;-93
2023/05/09 07:46:15;;;;;;;;;;;;;;;20.27;33.95;99931.53;4172449;34;35517;-93
2023/05/09 07:48:43;;;;;;;;;;;;;;;21.02;32.06;99937.22;4183590;34;34998;-92
2023/05/09 07:51:11;;;;;;;;;;;;;;;20.51;32.85;99939.37;4180104;34;33551;-96
2023/05/09 07:53:40;;;;;;;;;;;;;;;20.02;34.84;99930.84;4180970;34;35148;-96
2023/05/09 07:56:08;;;;;;;;;;;;;;;19.67;33.59;99919.84;4179085;34;35134;-93
2023/05/09 07:58:36;;;;;;;;;;;;;;;19.40;34.38;99927.91;4177378;34;35433;-89
2023/05/09 08:01:04;;;;;;;;;;;;;;;20.05;34.68;99922.78;4187358;34;34255;-94
2023/05/09 08:03:32;;;;;;;;;;;;;;;20.55;33.14;99914.50;4181083;34;33467;-90
2023/05/09 08:06:00;;;;;;;;;;;;;;;20.34;33.84;99905.69;4170273;34;35224;-95
2023/05/09 08:08:28;;;;;;;;;;;;;;;20.53;34.27;99908.44;4186924;34;34710;-89
2023/05/09 08:10:56;;;;;;;;;;;;;;;19.59;36.05;99906.94;4174087;34;33200;-92
2023/05/09 08:13:24;;;;;;;;;;;;;;;21.68;31.45;99899.78;4181785;34;34585;-90
2023/05/09 08:15:52;;;;;;;;;;;;;;;21.00;32.48;99900.22;4189694;34;35466;-96
2023/05/09 08:18:22;;;;;;;;;;;;;;;20.85;34.14;99900.06;4159892;34;33978;-94
2023/05/09 08:20:49;;;;;;;;;;;;;;;21.57;31.93;99899.44;4192506;34;33542;-95
2023/05/09 08:23:17;;;;;;;;;;;;;;;20.37;34.26;99895.00;4192517;34;34134;-95
2023/05/09 08:25:45;;;;;;;;;;;;;;;19.77;34.46;99889.53;4192730;34;35300;-93
2023/05/09 08:28:14;;;;;;;;;;;;;;;20.69;32.27;99899.88;4180102;34;34703;-91
2023/05/09 08:30:42;;;;;;;;;;;;;;;20.21;32.32;99889.50;4192562;34;33616;-91
2023/05/09 08:33:10;;;;;;;;;;;;;;;20.36;32.13;99898.56;4192323;34;33875;-96
2023/05/09 08:35:38;;;;;;;;;;;;;;;20.50;31.97;99895.31;4192509;34;35032;-90
2023/05/09 08:38:05;;;;;;;;;;;;;;;20.99;31.88;99893.19;4179929;34;34725;-94
2023/05/09 08:40:37;;;;;;;;;;;;;;;20.83;32.02;99890.38;4192513;34;34038;-88
2023/05/09 08:43:05;;;;;;;;;;;;;;;20.83;32.03;99894.81;4192155;34;34390;-88
2023/05/09 08:45:42;;;;;;;;;;;;;;;21.75;31.08;99877.34;4180150;34;36106;-87
2023/05/09 08:48:10;;;;;;;;;;;;;;;21.09;33.16;99893.66;4180040;34;34487;-95
2023/05/09 08:50:39;;;;;;;;;;;;;;;21.17;31.58;99885.34;4191935;34;34037;-91
2023/05/09 08:53:06;;;;;;;;;;;;;;;21.72;28.74;99888.09;4168381;34;33059;-89
2023/05/09 08:55:35;;;;;;;;;;;;;;;21.98;30.10;99887.78;4180003;34;35295;-89
2023/05/09 08:58:03;;;;;;;;;;;;;;;22.24;29.82;99879.37;4192169;34;35397;-92
2023/05/09 09:00:31;;;;;;;;;;;;;;;22.05;30.21;99876.78;4179979;34;34217;-89
2023/05/09 09:03:02;;;;;;;;;;;;;;;22.38;29.49;99877.84;4179809;34;34250;-95
2023/05/09 09:05:30;;;;;;;;;;;;;;;22.10;29.91;99880.06;4180039;34;35390;-92
2023/05/09 09:08:10;;;;;;;;;;;;;;;22.46;28.66;99876.50;4169398;34;33772;-86
2023/05/09 09:10:39;;;;;;;;;;;;;;;21.99;29.40;99866.50;4179950;34;33558;-91
2023/05/09 09:13:08;;;;;;;;;;;;;;;22.24;30.07;99874.06;4179407;34;32988;-92
2023/05/09 09:15:36;;;;;;;;;;;;;;;21.87;31.03;99861.78;4192373;34;36217;-91
2023/05/09 09:18:05;;;;;;;;;;;;;;;21.26;34.24;99874.34;4168234;34;33218;-90
2023/05/09 09:20:44;;;;;;;;;;;;;;;22.50;30.02;99863.94;4180486;34;33262;-87
2023/05/09 09:23:12;;;;;;;;;;;;;;;21.96;32.98;99863.97;4179750;34;34039;-88
2023/05/09 09:25:40;;;;;;;;;;;;;;;22.20;31.05;99863.69;4192233;34;34887;-89
2023/05/09 09:28:08;;;;;;;;;;;;;;;23.16;28.68;99862.28;4192176;34;34914;-95
2023/05/09 09:30:42;;;;;;;;;;;;;;;22.57;28.36;99867.12;4179778;34;34033;-90
2023/05/09 09:33:15;;;;;;;;;;;;;;;23.17;27.99;99869.28;4179641;34;33901;-95
2023/05/09 09:35:43;;;;;;;;;;;;;;;23.04;28.07;99866.41;4179824;34;35752;-94
2023/05/09 09:38:11;;;;;;;;;;;;;;;23.16;28.76;99860.47;4191936;34;34357;-94
2023/05/09 09:40:39;;;;;;;;;;;;;;;23.18;28.04;99858.59;4179818;34;33629;-88
2023/05/09 09:43:08;;;;;;;;;;;;;;;23.35;29.94;99855.00;4191795;34;33714;-96
2023/05/09 09:45:37;;;;;;;;;;;;;;;23.40;27.42;99852.06;4168499;34;35169;-92
2023/05/09 09:48:05;;;;;;;;;;;;;;;23.39;27.16;99858.34;4191870;34;34356;-94
2023/05/09 09:50:33;;;;;;;;;;;;;;;23.67;27.07;99850.53;4179730;34;34189;-92
2023/05/09 09:53:02;;;;;;;;;;;;;;;23.73;28.67;99845.81;4191811;34;35014;-89
2023/05/09 09:55:33;;;;;;;;;;;;;;;23.16;30.07;99838.38;4152605;34;34356;-91
2023/05/09 09:58:01;;;;;;;;;;;;;;;23.15;26.39;99853.44;4152516;34;34576;-96
2023/05/09 10:00:30;;;;;;;;;;;;;;;23.15;26.87;99840.16;4190559;34;32502;-96
2023/05/09 10:02:59;;;;;;;;;;;;;;;23.22;31.54;99832.72;4179133;34;34116;-88
2023/05/09 10:05:28;;;;;;;;;;;;;;;24.27;25.60;99835.59;4168065;34;35151;-93
2023/05/09 10:08:00;;;;;;;;;;;;;;;24.18;25.19;99838.81;4173896;34;34334;-93
2023/05/09 10:10:32;;;;;;;;;;;;;;;23.85;27.19;99816.72;4177736;34;32384;-93
2023/05/09 10:13:05;;;;;;;;;;;;;;;24.67;24.39;99835.88;4161898;34;33320;-90
2023/05/09 10:15:34;;;;;;;;;;;;;;;24.01;24.68;99830.00;4180448;34;37544;-96
2023/05/09 10:18:21;;;;;;;;;;;;;;;24.14;25.22;99823.94;4153370;34;33912;-87
2023/05/09 10:20:52;;;;;;;;;;;;;;;23.20;25.12;99840.75;4168342;34;34041;-88
2023/05/09 10:23:20;;;;;;;;;;;;;;;23.17;25.66;99832.97;4191000;34;34753;-87
2023/05/09 10:25:51;;;;;;;;;;;;;;;23.04;27.23;99824.78;4181658;34;35285;-92
2023/05/09 10:28:21;;;;;;;;;;;;;;;23.75;26.74;99827.97;4169921;34;34845;-87
2023/05/09 10:30:57;;;;;;;;;;;;;;;23.88;25.24;99834.34;4183521;34;35152;-90
2023/05/09 10:33:30;;;;;;;;;;;;;;;23.66;25.30;99827.56;4189242;34;34207;-96
2023/05/09 10:35:57;;;;;;;;;;;;;;;22.65;27.04;99825.13;4192508;34;34929;-93
2023/05/09 10:38:26;;;;;;;;;;;;;;;22.98;25.78;99816.31;4179301;34;35151;-95
2023/05/09 10:40:54;;;;;;;;;;;;;;;22.46;29.27;99818.13;4178705;34;33476;-95
2023/05/09 10:43:23;;;;;;;;;;;;;;;22.99;26.09;99828.63;4190447;34;35077;-93
2023/05/09 10:45:54;;;;;;;;;;;;;;;22.87;25.87;99835.44;4180389;34;34989;-95
2023/05/09 10:48:23;;;;;;;;;;;;;;;23.12;25.08;99820.88;4180990;34;34749;-96
2023/05/09 10:50:52;;;;;;;;;;;;;;;23.86;26.10;99825.59;4141912;34;33449;-95
2023/05/09 10:53:23;;;;;;;;;;;;;;;24.12;26.08;99821.38;4163881;34;32682;-89
2023/05/09 10:55:56;;;;;;;;;;;;;;;23.92;25.74;99813.72;4178537;34;35221;-94
2023/05/09 10:58:24;;;;;;;;;;;;;;;24.72;26.00;99819.59;4155413;34;34098;-89
2023/05/09 11:00:55;;;;;;;;;;;;;;;24.90;25.61;99806.94;4164339;34;33308;-94
2023/05/09 11:03:27;;;;;;;;;;;;;;;25.00;24.28;99805.41;4163680;34;33815;-90
2023/05/09 11:05:56;;;;;;;;;;;;;;;23.28;28.13;99813.78;4192320;28;35131;-92
2023/05/09 11:08:25;;;;;;;;;;;;;;;23.97;25.93;99812.50;4179218;34;34786;-92
2023/05/09 11:10:53;;;;;;;;;;;;;;;22.78;27.61;99822.66;4167276;34;32268;-93
2023/05/09 11:13:22;;;;;;;;;;;;;;;23.38;26.51;99814.09;4167925;34;33823;-95
2023/05/09 11:16:09;;;;;;;;;;;;;;;22.86;27.33;99808.03;4168943;34;35087;-96
2023/05/09 11:18:51;;;;;;;;;;;;;;;23.76;25.59;99805.75;4181160;34;34395;-95
2023/05/09 11:21:19;;;;;;;;;;;;;;;23.43;26.51;99793.44;4179960;34;33340;-94
2023/05/09 11:23:47;;;;;;;;;;;;;;;23.85;26.45;99790.13;4181228;34;34088;-91
2023/05/09 11:26:16;;;;;;;;;;;;;;;23.62;27.58;99796.75;4167393;34;35334;-93
2023/05/09 11:28:50;;;;;;;;;;;;;;;22.93;28.77;99797.09;4167342;34;34325;-96
2023/05/09 11:31:19;;;;;;;;;;;;;;;23.36;27.39;99789.41;4180341;34;33520;-92
2023/05/09 11:33:53;;;;;;;;;;;;;;;23.19;29.68;99783.25;4180199;34;35106;-94
2023/05/09 11:36:28;;;;;;;;;;;;;;;22.55;29.52;99781.44;4179992;34;35463;-93
2023/05/09 11:39:01;;;;;;;;;;;;;;;22.35;31.57;99783.34;4180881;34;34612;-95
2023/05/09 11:41:30;;;;;;;;;;;;;;;23.59;26.83;99778.31;4167652;34;34058;-92
2023/05/09 11:43:59;;;;;;;;;;;;;;;23.58;25.87;99781.09;4180749;34;34078;-93
2023/05/09 11:46:26;;;;;;;;;;;;;;;23.52;26.92;99774.31;4169472;34;35229;-92
2023/05/09 11:49:07;;;;;;;;;;;;;;;23.52;28.63;99784.94;4179508;34;34776;-89
2023/05/09 11:51:37;;;;;;;;;;;;;;;22.52;27.01;99778.00;4178814;34;33544;-88
2023/05/09 11:54:06;;;;;;;;;;;;;;;21.57;28.40;99778.38;4178412;34;33391;-92
2023/05/09 11:56:35;;;;;;;;;;;;;;;21.74;28.42;99771.38;4177337;34;35305;-96
2023/05/09 11:59:02;;;;;;;;;;;;;;;22.28;28.18;99780.16;4177797;34;34482;-90
2023/05/09 12:01:30;;;;;;;;;;;;;;;22.53;27.63;99762.94;4177068;34;33135;-93
2023/05/09 12:03:59;;;;;;;;;;;;;;;20.83;29.89;99765.13;4177848;34;34904;-91
2023/05/09 12:06:28;;;;;;;;;;;;;;;20.77;29.97;99757.44;4177086;34;34918;-91
2023/05/09 12:08:56;;;;;;;;;;;;;;;20.48;30.76;99759.63;4189549;34;34794;-88
2023/05/09 12:11:25;;;;;;;;;;;;;;;21.13;31.25;99743.44;4176719;34;33983;-89
2023/05/09 12:13:53;;;;;;;;;;;;;;;21.12;31.79;99747.00;4179201;34;33984;-93
2023/05/09 12:16:21;;;;;;;;;;;;;;;22.17;30.15;99752.44;4176812;34;34935;-91
2023/05/09 12:18:50;;;;;;;;;;;;;;;21.31;31.85;99761.06;4179146;34;35522;-95
2023/05/09 12:21:18;;;;;;;;;;;;;;;21.20;29.61;99751.00;4178024;34;34359;-94
2023/05/09 12:23:46;;;;;;;;;;;;;;;21.70;29.58;99744.19;4178893;34;35011;-93
2023/05/09 12:26:18;;;;;;;;;;;;;;;21.55;33.64;99742.31;4166805;34;36950;-92
2023/05/09 12:28:46;;;;;;;;;;;;;;;21.93;30.81;99744.81;4179144;34;35483;-89
2023/05/09 12:31:13;;;;;;;;;;;;;;;21.67;28.31;99747.00;4179023;34;33516;-89
2023/05/09 12:33:42;;;;;;;;;;;;;;;20.88;29.52;99743.72;4177782;34;34188;-89
2023/05/09 12:36:10;;;;;;;;;;;;;;;20.92;29.09;99732.06;4177849;34;35078;-90
2023/05/09 12:38:38;;;;;;;;;;;;;;;20.89;29.48;99726.91;4179126;34;35473;-96
2023/05/09 12:41:07;;;;;;;;;;;;;;;21.01;30.54;99729.84;4166749;34;33203;-93
2023/05/09 12:43:49;;;;;;;;;;;;;;;21.01;30.52;99721.03;4176833;34;34899;-96
2023/05/09 12:46:17;;;;;;;;;;;;;;;21.39;29.92;99716.53;4176562;34;34768;-96
2023/05/09 12:48:47;;;;;;;;;;;;;;;21.93;29.93;99715.62;4176794;34;35380;-93
2023/05/09 12:51:19;;;;;;;;;;;;;;;22.19;27.30;99713.44;4176894;34;32272;-89
2023/05/09 12:53:47;;;;;;;;;;;;;;;21.95;27.51;99709.34;4178031;34;34287;-96
2023/05/09 12:56:16;;;;;;;;;;;;;;;21.67;29.34;99709.91;4177077;34;34210;-96
2023/05/09 12:58:50;;;;;;;;;;;;;;;21.30;29.12;99709.06;4178697;34;34713;-92
2023/05/09 13:01:19;;;;;;;;;;;;;;;20.97;29.80;99709.75;4179136;34;33612;-96
2023/05/09 13:04:06;;;;;;;;;;;;;;;20.30;30.41;99703.13;4178941;34;34888;-95
2023/05/09 13:06:35;;;;;;;;;;;;;;;19.88;32.51;99702.28;4179338;34;35310;-93